Time;durP1;ratioP1;P1;durP2;ratioP2;P2;SDS_P1;SDS_P2;PMS_P1;PMS_P2;Temp;Humidity;BMP_temperature;BMP_pressure;BME280_temperature;BME280_humidity;BME280_pressure;Samples;Min_cycle;Max_cycle;Signal;HPM_P1;HPM_P2
2022/03/16 00:01:19;;;;;;;31.92;19.00;;;8.10;61.40;;;;;;5117172;28;20434;-20
2022/03/16 00:03:45;;;;;;;29.65;18.80;;;8.10;61.60;;;;;;5117329;28;20027;-20
2022/03/16 00:06:11;;;;;;;29.63;19.98;;;8.10;61.50;;;;;;5117066;28;20024;-20
2022/03/16 00:08:36;;;;;;;20.98;13.60;;;8.00;61.90;;;;;;5116064;28;20118;-20
2022/03/16 00:11:04;;;;;;;26.52;17.85;;;8.00;61.70;;;;;;5116926;28;20030;-20
2022/03/16 00:13:31;;;;;;;19.45;12.18;;;7.90;61.70;;;;;;5116974;28;20616;-21
2022/03/16 00:15:57;;;;;;;40.65;24.77;;;7.90;61.80;;;;;;5115343;28;20530;-21
2022/03/16 00:18:23;;;;;;;32.75;19.90;;;7.90;61.90;;;;;;5116888;28;20039;-20
2022/03/16 00:20:49;;;;;;;34.47;19.80;;;7.90;62.00;;;;;;5117069;28;20391;-21
2022/03/16 00:23:16;;;;;;;29.42;19.13;;;7.90;61.90;;;;;;5116827;28;20468;-20
2022/03/16 00:25:42;;;;;;;18.83;11.70;;;7.90;62.10;;;;;;5116689;28;20483;-20
2022/03/16 00:28:09;;;;;;;26.42;16.55;;;7.90;61.90;;;;;;5116798;28;20026;-20
2022/03/16 00:30:37;;;;;;;19.73;11.60;;;7.90;61.80;;;;;;5116708;28;20027;-20
2022/03/16 00:33:03;;;;;;;47.05;30.00;;;7.90;61.70;;;;;;5116762;28;20027;-20
2022/03/16 00:35:29;;;;;;;25.75;15.25;;;7.90;61.80;;;;;;5116882;28;20020;-21
2022/03/16 00:37:55;;;;;;;26.70;16.85;;;7.90;62.10;;;;;;5117019;28;20031;-21
2022/03/16 00:40:21;;;;;;;15.68;10.23;;;7.90;61.90;;;;;;5117130;28;20110;-21
2022/03/16 00:42:47;;;;;;;17.73;10.93;;;7.90;61.70;;;;;;5117089;28;20031;-20
2022/03/16 00:45:13;;;;;;;37.33;21.52;;;7.90;61.60;;;;;;5116629;28;20031;-21
2022/03/16 00:47:39;;;;;;;18.05;10.27;;;7.90;61.90;;;;;;5116551;28;20028;-21
2022/03/16 00:50:06;;;;;;;24.27;15.30;;;7.90;61.70;;;;;;5116560;28;20383;-21
2022/03/16 00:52:32;;;;;;;30.10;18.27;;;7.90;61.50;;;;;;5116026;28;20032;-20
2022/03/16 00:54:58;;;;;;;22.65;14.95;;;7.90;61.70;;;;;;5116186;28;20029;-21
2022/03/16 00:57:24;;;;;;;30.98;18.00;;;7.90;61.80;;;;;;5116006;28;20047;-20
2022/03/16 00:59:50;;;;;;;20.10;11.85;;;7.90;61.90;;;;;;5116245;28;20020;-20
2022/03/16 01:02:16;;;;;;;31.25;19.25;;;7.90;61.80;;;;;;5116131;28;20024;-21
2022/03/16 01:04:42;;;;;;;46.63;27.67;;;7.90;61.70;;;;;;5116185;28;20548;-21
2022/03/16 01:07:08;;;;;;;24.25;13.93;;;7.90;62.20;;;;;;5115967;28;20016;-20
2022/03/16 01:09:34;;;;;;;23.05;13.65;;;7.90;62.10;;;;;;5115839;28;20138;-20
2022/03/16 01:12:04;;;;;;;20.42;12.30;;;7.90;62.00;;;;;;5116083;28;20027;-21
2022/03/16 01:14:30;;;;;;;27.08;15.63;;;7.90;61.90;;;;;;5115585;28;20027;-21
2022/03/16 01:16:56;;;;;;;44.20;25.45;;;8.00;62.00;;;;;;5115371;28;20048;-20
2022/03/16 01:19:22;;;;;;;39.70;24.08;;;8.00;61.90;;;;;;5115904;28;20031;-21
2022/03/16 01:21:48;;;;;;;22.00;14.13;;;8.10;62.30;;;;;;5115662;28;20428;-20
2022/03/16 01:24:15;;;;;;;17.67;10.98;;;8.10;62.10;;;;;;5115367;28;20080;-22
2022/03/16 01:26:41;;;;;;;25.40;14.82;;;8.20;61.80;;;;;;5115536;28;20019;-21
2022/03/16 01:29:07;;;;;;;19.58;11.30;;;8.20;61.80;;;;;;5115883;28;20026;-21
2022/03/16 01:31:35;;;;;;;22.45;14.38;;;8.30;61.60;;;;;;5116101;28;20031;-20
2022/03/16 01:34:01;;;;;;;18.33;11.32;;;8.30;61.40;;;;;;5115609;28;20106;-21
2022/03/16 01:36:27;;;;;;;18.08;10.05;;;8.40;61.40;;;;;;5115862;28;20165;-21
2022/03/16 01:38:53;;;;;;;18.33;11.18;;;8.40;61.30;;;;;;5115592;28;20020;-21
2022/03/16 01:41:18;;;;;;;32.80;21.38;;;8.50;61.20;;;;;;5115178;28;20532;-21
2022/03/16 01:43:44;;;;;;;58.42;33.50;;;8.50;61.20;;;;;;5115231;28;20024;-20
2022/03/16 01:46:10;;;;;;;47.80;25.80;;;8.60;62.10;;;;;;5115135;27;20019;-20
2022/03/16 01:48:36;;;;;;;24.60;14.80;;;8.60;62.10;;;;;;5114735;28;20020;-20
2022/03/16 01:51:04;;;;;;;23.23;14.48;;;8.60;61.50;;;;;;5115380;28;20031;-20
2022/03/16 01:53:30;;;;;;;19.15;12.05;;;8.60;61.30;;;;;;5115295;28;20050;-21
2022/03/16 01:55:56;;;;;;;18.88;11.60;;;8.60;61.30;;;;;;5115211;28;20483;-20
2022/03/16 01:58:22;;;;;;;25.98;15.93;;;8.60;61.10;;;;;;5113546;28;20078;-20
2022/03/16 02:00:48;;;;;;;34.22;21.08;;;8.60;62.00;;;;;;5115163;28;20027;-21
2022/03/16 02:03:15;;;;;;;26.25;15.50;;;8.60;61.70;;;;;;5115020;28;20019;-21
2022/03/16 02:05:41;;;;;;;18.33;10.90;;;8.60;61.60;;;;;;5114748;28;20028;-21
2022/03/16 02:08:08;;;;;;;16.92;9.30;;;8.60;61.30;;;;;;5114945;28;20020;-20
2022/03/16 02:10:34;;;;;;;20.25;12.95;;;8.60;61.20;;;;;;5114452;28;20035;-20
2022/03/16 02:13:01;;;;;;;16.02;9.32;;;8.60;61.10;;;;;;5114607;28;20023;-21
2022/03/16 02:15:27;;;;;;;26.13;16.83;;;8.60;61.10;;;;;;5114551;28;20084;-21
2022/03/16 02:17:55;;;;;;;50.35;32.13;;;8.60;61.10;;;;;;5114329;28;20036;-20
2022/03/16 02:20:27;;;;;;;25.83;14.90;;;8.50;61.80;;;;;;5114376;28;20027;-20
2022/03/16 02:23:02;;;;;;;32.92;19.70;;;8.50;61.50;;;;;;5114363;28;20027;-21
2022/03/16 02:25:29;;;;;;;19.75;12.10;;;8.50;61.30;;;;;;5114809;28;20534;-21
2022/03/16 02:27:57;;;;;;;17.85;10.65;;;8.50;61.30;;;;;;5114282;28;20028;-20
2022/03/16 02:30:25;;;;;;;26.05;15.88;;;8.50;61.30;;;;;;5114397;28;20035;-20
2022/03/16 02:32:51;;;;;;;37.88;23.88;;;8.50;61.20;;;;;;5114467;28;20077;-21
2022/03/16 02:35:17;;;;;;;22.38;12.23;;;8.50;62.00;;;;;;5114432;28;20122;-20
2022/03/16 02:37:43;;;;;;;21.30;12.98;;;8.50;61.50;;;;;;5114078;28;20122;-20
2022/03/16 02:40:11;;;;;;;19.25;11.10;;;8.40;61.40;;;;;;5114090;28;20024;-21
2022/03/16 02:42:38;;;;;;;26.98;15.88;;;8.40;61.20;;;;;;5114183;28;20023;-21
2022/03/16 02:45:07;;;;;;;35.47;21.75;;;8.40;61.20;;;;;;5114467;28;20027;-20
2022/03/16 02:47:34;;;;;;;30.80;19.13;;;8.40;61.70;;;;;;5113027;28;20102;-20
2022/03/16 02:50:01;;;;;;;51.65;30.25;;;8.40;62.30;;;;;;5114150;28;20036;-21
2022/03/16 02:52:27;;;;;;;44.63;27.30;;;8.30;62.40;;;;;;5113739;28;20382;-21
2022/03/16 02:54:53;;;;;;;27.58;15.15;;;8.30;63.00;;;;;;5114230;28;20073;-20
2022/03/16 02:57:19;;;;;;;30.30;18.42;;;8.20;62.30;;;;;;5114718;28;20080;-20
2022/03/16 02:59:45;;;;;;;20.50;12.45;;;8.20;61.90;;;;;;5113837;28;20020;-20
2022/03/16 03:02:12;;;;;;;37.45;22.90;;;8.20;62.10;;;;;;5113784;28;20063;-21
2022/03/16 03:04:39;;;;;;;34.03;19.08;;;8.10;61.90;;;;;;5114026;28;20027;-20
2022/03/16 03:07:05;;;;;;;57.30;32.03;;;8.10;62.30;;;;;;5114316;28;20031;-20
2022/03/16 03:09:32;;;;;;;38.33;21.15;;;8.00;62.50;;;;;;5114058;28;20031;-21
2022/03/16 03:11:59;;;;;;;28.38;18.23;;;8.00;62.70;;;;;;5113959;28;20055;-21
2022/03/16 03:14:26;;;;;;;23.73;13.55;;;8.00;62.60;;;;;;5113729;28;20028;-20
2022/03/16 03:16:52;;;;;;;36.47;20.52;;;7.90;62.50;;;;;;5112001;28;20087;-20
2022/03/16 03:19:20;;;;;;;32.30;19.17;;;7.90;62.90;;;;;;5113492;28;20547;-21
2022/03/16 03:21:47;;;;;;;47.50;26.50;;;7.90;62.70;;;;;;5113828;28;20111;-21
2022/03/16 03:24:14;;;;;;;25.30;15.48;;;7.90;63.10;;;;;;5113480;28;20019;-21
2022/03/16 03:26:40;;;;;;;32.33;19.67;;;7.90;63.00;;;;;;5113800;28;20094;-20
2022/03/16 03:29:07;;;;;;;33.90;18.85;;;7.90;63.00;;;;;;5113988;28;20040;-20
2022/03/16 03:31:32;;;;;;;19.80;11.13;;;7.90;63.00;;;;;;5113439;28;20444;-20
2022/03/16 03:33:58;;;;;;;28.52;16.92;;;7.90;63.00;;;;;;5117163;28;20134;-20
2022/03/16 03:36:24;;;;;;;19.63;11.07;;;7.90;63.00;;;;;;5117822;28;20059;-20
2022/03/16 03:38:50;;;;;;;25.77;14.70;;;7.90;62.90;;;;;;5118458;28;20031;-21
2022/03/16 03:41:16;;;;;;;20.67;11.27;;;8.00;62.80;;;;;;5117921;28;20049;-20
2022/03/16 03:43:42;;;;;;;18.55;11.18;;;8.00;62.70;;;;;;5117579;28;20391;-21
2022/03/16 03:46:08;;;;;;;26.90;15.10;;;8.10;62.70;;;;;;5117687;28;20023;-20
2022/03/16 03:48:34;;;;;;;25.40;15.27;;;8.10;62.60;;;;;;5117458;28;20036;-21
2022/03/16 03:51:00;;;;;;;23.90;14.52;;;8.10;62.40;;;;;;5117707;28;20081;-21
2022/03/16 03:53:26;;;;;;;17.40;9.63;;;8.20;62.40;;;;;;5117627;28;20375;-20
2022/03/16 03:55:51;;;;;;;45.10;27.45;;;8.20;62.30;;;;;;5117729;28;20024;-20
2022/03/16 03:58:17;;;;;;;33.30;20.40;;;8.20;62.30;;;;;;5117132;28;20514;-21
2022/03/16 04:00:43;;;;;;;21.35;12.00;;;8.20;63.00;;;;;;5117756;28;20027;-21
2022/03/16 04:03:09;;;;;;;32.67;20.00;;;8.20;62.60;;;;;;5117017;28;20028;-21
2022/03/16 04:05:35;;;;;;;20.27;10.90;;;8.30;62.70;;;;;;5117432;28;20024;-20
2022/03/16 04:08:01;;;;;;;42.30;21.70;;;8.30;62.40;;;;;;5117219;28;20019;-20
2022/03/16 04:10:27;;;;;;;21.77;12.65;;;8.30;62.30;;;;;;5117118;28;20028;-20
2022/03/16 04:12:53;;;;;;;17.42;9.98;;;8.30;62.20;;;;;;5116963;28;20110;-21
2022/03/16 04:15:20;;;;;;;17.95;10.55;;;8.30;62.00;;;;;;5117334;28;20051;-20
2022/03/16 04:17:47;;;;;;;19.10;11.20;;;8.30;62.10;;;;;;5117114;28;20432;-21
2022/03/16 04:20:13;;;;;;;23.92;14.98;;;8.30;62.00;;;;;;5116777;28;20122;-21
2022/03/16 04:22:39;;;;;;;16.90;10.98;;;8.20;61.90;;;;;;5116906;27;20039;-20
2022/03/16 04:25:06;;;;;;;35.03;22.25;;;8.20;62.00;;;;;;5117163;28;20020;-21
2022/03/16 04:27:32;;;;;;;18.00;10.90;;;8.20;62.20;;;;;;5116693;28;20088;-21
2022/03/16 04:29:58;;;;;;;19.80;11.20;;;8.20;62.40;;;;;;5116675;28;20055;-20
2022/03/16 04:32:24;;;;;;;16.92;9.18;;;8.20;62.50;;;;;;5116707;28;20038;-21
2022/03/16 04:34:50;;;;;;;17.85;10.98;;;8.20;62.30;;;;;;5116779;28;20028;-20
2022/03/16 04:37:16;;;;;;;15.50;9.00;;;8.20;62.30;;;;;;5116447;28;20038;-20
2022/03/16 04:39:42;;;;;;;15.45;9.18;;;8.20;62.30;;;;;;5116670;28;20028;-21
2022/03/16 04:42:08;;;;;;;14.98;8.68;;;8.20;62.20;;;;;;5116769;28;20386;-20
2022/03/16 04:44:34;;;;;;;18.33;10.18;;;8.20;62.20;;;;;;5115447;28;20059;-21
2022/03/16 04:47:00;;;;;;;19.23;10.68;;;8.30;62.10;;;;;;5116313;28;20023;-20
2022/03/16 04:49:26;;;;;;;15.48;8.43;;;8.40;62.30;;;;;;5116507;28;20023;-21
2022/03/16 04:51:52;;;;;;;31.50;19.75;;;8.40;62.20;;;;;;5116536;28;20024;-20
2022/03/16 04:54:18;;;;;;;25.30;15.73;;;8.40;62.30;;;;;;5116316;27;20023;-25
2022/03/16 04:56:44;;;;;;;16.92;9.88;;;8.40;62.50;;;;;;5116406;28;20043;-21
2022/03/16 04:59:10;;;;;;;34.35;19.60;;;8.40;62.30;;;;;;5116364;28;20035;-20
2022/03/16 05:01:36;;;;;;;19.55;10.57;;;8.50;62.30;;;;;;5115998;28;20034;-20
2022/03/16 05:04:02;;;;;;;18.83;10.98;;;8.50;62.10;;;;;;5116082;28;20024;-21
2022/03/16 05:06:28;;;;;;;19.70;11.00;;;8.50;62.00;;;;;;5115879;28;20034;-20
2022/03/16 05:08:54;;;;;;;21.10;12.10;;;8.50;62.00;;;;;;5116247;28;20031;-20
2022/03/16 05:11:22;;;;;;;22.45;13.10;;;8.50;62.10;;;;;;5115866;28;20464;-20
2022/03/16 05:13:49;;;;;;;14.55;8.10;;;8.50;62.10;;;;;;5116174;28;20102;-20
2022/03/16 05:16:16;;;;;;;14.77;8.20;;;8.50;62.00;;;;;;5115249;28;20075;-20
2022/03/16 05:18:45;;;;;;;22.25;13.60;;;8.50;62.00;;;;;;5115625;28;20503;-20
2022/03/16 05:21:12;;;;;;;16.48;9.70;;;8.50;62.00;;;;;;5115690;27;20027;-21
2022/03/16 05:23:40;;;;;;;14.82;8.18;;;8.50;62.00;;;;;;5115599;28;20433;-21
2022/03/16 05:26:07;;;;;;;16.05;8.95;;;8.50;62.00;;;;;;5115562;28;20024;-20
2022/03/16 05:28:34;;;;;;;18.60;10.73;;;8.50;61.90;;;;;;5115425;28;20054;-20
2022/03/16 05:31:02;;;;;;;20.13;12.27;;;8.50;61.90;;;;;;5116047;28;20448;-20
2022/03/16 05:33:28;;;;;;;22.98;13.38;;;8.50;62.10;;;;;;5115362;28;20094;-21
2022/03/16 05:35:53;;;;;;;23.33;14.40;;;8.50;62.30;;;;;;5116123;28;20032;-20
2022/03/16 05:38:20;;;;;;;19.75;10.52;;;8.50;62.20;;;;;;5115138;28;20030;-20
2022/03/16 05:40:45;;;;;;;20.50;12.35;;;8.50;62.20;;;;;;5115273;28;20022;-21
2022/03/16 05:43:13;;;;;;;22.80;13.52;;;8.60;62.10;;;;;;5115494;28;20027;-21
2022/03/16 05:45:39;;;;;;;23.67;14.13;;;8.60;62.10;;;;;;5115198;28;20542;-21
2022/03/16 05:48:05;;;;;;;34.15;18.95;;;8.60;62.10;;;;;;5115134;28;20095;-20
2022/03/16 05:50:31;;;;;;;25.63;14.90;;;8.70;62.40;;;;;;5115030;28;20030;-20
2022/03/16 05:53:00;;;;;;;18.15;9.88;;;8.70;62.20;;;;;;5115353;28;20387;-21
2022/03/16 05:55:26;;;;;;;18.00;9.98;;;8.80;62.00;;;;;;5114701;28;20039;-20
2022/03/16 05:57:52;;;;;;;20.00;10.52;;;8.80;61.90;;;;;;5114708;28;20028;-20
2022/03/16 06:00:20;;;;;;;26.95;16.10;;;8.80;61.90;;;;;;5114758;28;20019;-20
2022/03/16 06:02:48;;;;;;;21.65;13.32;;;8.90;62.30;;;;;;5115131;28;20049;-21
2022/03/16 06:05:15;;;;;;;21.35;12.00;;;8.90;62.10;;;;;;5114714;28;20495;-20
2022/03/16 06:07:42;;;;;;;36.65;20.75;;;8.90;61.90;;;;;;5114679;28;20032;-20
2022/03/16 06:10:12;;;;;;;38.13;22.13;;;8.90;62.00;;;;;;5115153;28;20032;-21
2022/03/16 06:12:57;;;;;;;22.02;11.98;;;8.90;62.10;;;;;;5114662;28;20066;-21
2022/03/16 06:15:25;;;;;;;20.75;12.18;;;9.00;61.90;;;;;;5114389;28;20391;-20
2022/03/16 06:18:00;;;;;;;41.83;23.60;;;9.00;62.00;;;;;;5114699;28;20065;-20
2022/03/16 06:20:31;;;;;;;20.85;11.68;;;9.00;61.70;;;;;;5114332;28;20023;-20
2022/03/16 06:22:57;;;;;;;20.13;11.55;;;9.00;61.80;;;;;;5114428;28;20030;-20
2022/03/16 06:25:24;;;;;;;53.92;30.33;;;9.00;61.90;;;;;;5114696;28;20023;-20
2022/03/16 06:27:51;;;;;;;43.38;26.83;;;9.00;61.90;;;;;;5114326;28;20034;-20
2022/03/16 06:30:17;;;;;;;23.35;13.82;;;9.10;61.90;;;;;;5114186;28;20115;-20
2022/03/16 06:32:47;;;;;;;19.38;11.43;;;9.10;61.90;;;;;;5114524;28;20055;-20
2022/03/16 06:35:15;;;;;;;23.02;13.05;;;9.10;61.80;;;;;;5114177;28;20475;-20
2022/03/16 06:37:43;;;;;;;24.80;14.68;;;9.20;61.80;;;;;;5114410;28;20039;-20
2022/03/16 06:40:10;;;;;;;24.55;15.10;;;9.20;61.90;;;;;;5114297;28;20051;-20
2022/03/16 06:42:46;;;;;;;41.78;26.23;;;9.20;62.10;;;;;;5113900;28;20482;-21
2022/03/16 06:45:12;;;;;;;31.83;19.38;;;9.30;62.20;;;;;;5114066;28;20031;-20
2022/03/16 06:47:39;;;;;;;34.47;21.15;;;9.40;62.50;;;;;;5114113;28;20148;-20
2022/03/16 06:50:06;;;;;;;37.58;21.85;;;9.40;62.10;;;;;;5113864;28;20486;-20
2022/03/16 06:52:32;;;;;;;46.55;26.40;;;9.50;62.00;;;;;;5112502;28;20476;-20
2022/03/16 06:54:58;;;;;;;33.40;19.98;;;9.50;62.30;;;;;;5114125;28;20035;-21
2022/03/16 06:57:24;;;;;;;37.53;23.38;;;9.60;62.00;;;;;;5114140;28;20039;-20
2022/03/16 06:59:50;;;;;;;46.40;25.30;;;9.70;62.50;;;;;;5112550;28;20031;-20
2022/03/16 07:02:17;;;;;;;39.88;24.67;;;9.80;62.10;;;;;;5113874;28;20041;-21
2022/03/16 07:04:48;;;;;;;31.52;18.65;;;9.90;62.20;;;;;;5113976;28;20035;-20
2022/03/16 07:07:14;;;;;;;40.13;22.25;;;9.90;62.10;;;;;;5113369;28;20123;-21
2022/03/16 07:09:40;;;;;;;26.83;16.52;;;10.00;62.40;;;;;;5113984;28;20023;-20
2022/03/16 07:12:07;;;;;;;37.35;22.20;;;10.00;62.00;;;;;;5113860;28;20034;-20
2022/03/16 07:14:34;;;;;;;53.47;30.52;;;10.10;62.00;;;;;;5113409;28;20031;-21
2022/03/16 07:17:01;;;;;;;45.58;27.15;;;10.20;62.30;;;;;;5113414;28;20091;-20
2022/03/16 07:19:29;;;;;;;50.10;30.10;;;10.30;62.30;;;;;;5113449;28;20050;-21
2022/03/16 07:21:58;;;;;;;43.53;25.10;;;10.40;62.10;;;;;;5113832;28;20028;-21
2022/03/16 07:24:25;;;;;;;51.83;30.25;;;10.40;62.40;;;;;;5113315;28;20475;-20
2022/03/16 07:26:55;;;;;;;47.13;29.02;;;10.40;62.50;;;;;;5114345;28;20024;-21
2022/03/16 07:29:22;;;;;;;45.90;28.05;;;10.50;62.20;;;;;;5113807;28;20024;-21
2022/03/16 07:31:49;;;;;;;51.70;31.63;;;10.50;62.50;;;;;;5114277;28;20028;-21
2022/03/16 07:34:15;;;;;;;48.78;31.08;;;10.60;63.10;;;;;;5111879;28;20035;-22
2022/03/16 07:36:41;;;;;;;54.22;32.60;;;10.60;63.40;;;;;;5113274;28;20044;-21
2022/03/16 07:39:07;;;;;;;43.17;27.15;;;10.70;63.30;;;;;;5113661;28;20115;-21
2022/03/16 07:41:33;;;;;;;47.25;29.10;;;10.70;62.70;;;;;;5112696;28;20058;-21
2022/03/16 07:43:58;;;;;;;48.92;29.27;;;10.80;63.10;;;;;;5113343;28;20467;-21
2022/03/16 07:46:24;;;;;;;40.85;24.75;;;10.90;62.90;;;;;;5113099;28;20064;-21
2022/03/16 07:48:50;;;;;;;39.50;23.05;;;11.00;62.80;;;;;;5113677;28;20016;-21
2022/03/16 07:51:16;;;;;;;42.92;25.25;;;11.10;62.30;;;;;;5113314;28;20031;-21
2022/03/16 07:53:42;;;;;;;42.25;25.48;;;11.20;62.30;;;;;;5113602;28;20378;-22
2022/03/16 07:56:08;;;;;;;50.08;29.58;;;11.30;62.20;;;;;;5113610;28;20463;-21
2022/03/16 07:58:35;;;;;;;50.97;30.17;;;11.50;62.10;;;;;;5113249;28;20047;-21
2022/03/16 08:01:01;;;;;;;46.17;28.17;;;11.60;62.10;;;;;;5113526;28;20027;-21
2022/03/16 08:03:27;;;;;;;36.90;22.02;;;11.70;61.80;;;;;;5112956;28;20020;-22
2022/03/16 08:05:53;;;;;;;44.95;26.35;;;11.80;61.30;;;;;;5113016;28;20026;-22
2022/03/16 08:08:19;;;;;;;52.03;31.55;;;11.90;61.40;;;;;;5113208;28;20066;-21
2022/03/16 08:10:45;;;;;;;43.47;26.30;;;12.00;61.10;;;;;;5113327;28;20433;-22
2022/03/16 08:13:11;;;;;;;44.47;27.15;;;12.10;61.20;;;;;;5113291;28;20055;-22
2022/03/16 08:15:37;;;;;;;46.33;26.58;;;12.20;60.90;;;;;;5113022;28;20039;-22
2022/03/16 08:18:03;;;;;;;32.67;20.88;;;12.40;60.60;;;;;;5113003;28;20028;-22
2022/03/16 08:20:29;;;;;;;35.15;22.38;;;12.50;60.40;;;;;;5115489;28;20024;-22
2022/03/16 08:22:56;;;;;;;37.83;23.67;;;12.60;60.20;;;;;;5117369;28;20035;-21
2022/03/16 08:25:23;;;;;;;38.60;24.02;;;12.80;59.90;;;;;;5117613;28;20047;-21
2022/03/16 08:27:49;;;;;;;30.80;18.48;;;12.90;59.80;;;;;;5117071;28;20023;-22
2022/03/16 08:30:16;;;;;;;31.55;19.25;;;13.00;59.30;;;;;;5116491;28;20423;-22
2022/03/16 08:32:43;;;;;;;39.65;25.67;;;13.20;58.80;;;;;;5117179;28;20027;-19
2022/03/16 08:35:11;;;;;;;36.08;22.10;;;13.40;58.70;;;;;;5116822;28;20111;-21
2022/03/16 08:37:38;;;;;;;45.00;27.02;;;13.50;58.60;;;;;;5116418;28;20026;-21
2022/03/16 08:40:07;;;;;;;34.63;20.70;;;13.70;58.40;;;;;;5116857;28;20024;-21
2022/03/16 08:42:33;;;;;;;42.90;26.58;;;13.80;58.00;;;;;;5116253;28;20024;-21
2022/03/16 08:45:01;;;;;;;37.00;23.23;;;13.90;57.70;;;;;;5117004;28;20019;-21
2022/03/16 08:47:27;;;;;;;37.90;22.60;;;14.00;57.50;;;;;;5116373;28;20051;-21
2022/03/16 08:49:55;;;;;;;45.75;28.35;;;14.10;57.30;;;;;;5116560;28;20102;-21
2022/03/16 08:52:22;;;;;;;40.85;26.25;;;14.20;57.10;;;;;;5116342;28;20031;-21
2022/03/16 08:54:48;;;;;;;51.78;32.17;;;14.30;56.90;;;;;;5116802;28;20016;-21
2022/03/16 08:57:15;;;;;;;40.88;26.13;;;14.40;56.90;;;;;;5116455;28;20487;-21
2022/03/16 08:59:41;;;;;;;38.55;24.95;;;14.50;56.80;;;;;;5116481;28;20027;-21
2022/03/16 09:02:09;;;;;;;41.10;27.02;;;14.60;56.60;;;;;;5116395;28;20043;-22
2022/03/16 09:04:35;;;;;;;41.97;27.85;;;14.80;56.30;;;;;;5115699;28;20031;-22
2022/03/16 09:07:02;;;;;;;35.95;22.48;;;14.90;56.10;;;;;;5116071;28;20012;-21
2022/03/16 09:09:29;;;;;;;40.10;26.42;;;15.00;55.70;;;;;;5116234;28;20027;-21
2022/03/16 09:11:55;;;;;;;42.33;26.92;;;15.10;55.40;;;;;;5115884;28;20039;-22
2022/03/16 09:14:21;;;;;;;39.40;26.23;;;15.30;55.40;;;;;;5114427;28;20034;-21
2022/03/16 09:16:47;;;;;;;39.58;25.08;;;15.40;55.00;;;;;;5115573;28;20043;-21
2022/03/16 09:19:20;;;;;;;42.83;28.02;;;15.60;54.70;;;;;;5115948;28;20392;-21
2022/03/16 09:21:47;;;;;;;34.55;24.13;;;15.80;54.10;;;;;;5115770;28;20023;-22
2022/03/16 09:24:14;;;;;;;35.83;22.92;;;15.90;54.10;;;;;;5115839;28;20028;-23
2022/03/16 09:26:40;;;;;;;30.67;19.35;;;16.00;54.00;;;;;;5115622;28;20019;-21
2022/03/16 09:29:08;;;;;;;39.28;25.70;;;16.20;53.70;;;;;;5115853;28;20034;-21
2022/03/16 09:31:37;;;;;;;29.65;20.50;;;16.40;53.10;;;;;;5115277;28;20414;-19
2022/03/16 09:34:07;;;;;;;28.77;18.13;;;16.40;52.80;;;;;;5115373;28;20068;-21
2022/03/16 09:36:37;;;;;;;27.85;18.02;;;16.70;52.90;;;;;;5115417;28;20104;-21
2022/03/16 09:39:06;;;;;;;29.45;19.40;;;16.80;52.50;;;;;;5115982;28;20051;-21
2022/03/16 09:41:32;;;;;;;35.60;23.75;;;16.90;52.30;;;;;;5114095;28;20027;-21
2022/03/16 09:44:00;;;;;;;35.15;22.73;;;17.20;51.50;;;;;;5115495;28;20532;-21
2022/03/16 09:46:31;;;;;;;23.52;15.35;;;17.30;51.30;;;;;;5115233;28;20024;-21
2022/03/16 09:48:58;;;;;;;22.92;14.10;;;17.50;51.20;;;;;;5115446;28;20461;-21
2022/03/16 09:51:34;;;;;;;19.70;13.70;;;17.70;51.30;;;;;;5115113;28;20024;-22
2022/03/16 09:54:01;;;;;;;32.58;21.52;;;17.90;51.10;;;;;;5115031;28;20114;-21
2022/03/16 09:56:29;;;;;;;27.70;19.92;;;18.00;50.50;;;;;;5115276;28;20023;-21
2022/03/16 09:58:55;;;;;;;40.92;26.90;;;18.20;50.40;;;;;;5115252;28;20039;-21
2022/03/16 10:01:22;;;;;;;33.92;23.42;;;18.30;49.60;;;;;;5115202;28;20027;-21
2022/03/16 10:03:49;;;;;;;26.20;17.88;;;18.30;49.30;;;;;;5114704;28;20164;-21
2022/03/16 10:06:17;;;;;;;28.80;19.67;;;18.40;49.90;;;;;;5115253;28;20030;-22
2022/03/16 10:13:13;;;;;;;26.08;17.02;;;18.50;49.70;;;;;;5114990;28;20066;-21
2022/03/16 10:14:17;;;;;;;39.95;24.13;;;18.80;49.20;;;;;;5114555;28;20049;-22
2022/03/16 10:19:51;;;;;;;29.40;21.23;;;19.20;48.50;;;;;;5114832;28;20398;-22
2022/03/16 10:22:25;;;;;;;37.78;25.45;;;19.40;48.40;;;;;;5115417;28;20034;-21
2022/03/16 10:25:02;;;;;;;35.85;22.88;;;19.60;48.00;;;;;;5114743;28;20024;-22
2022/03/16 10:27:30;;;;;;;39.20;25.00;;;19.80;47.80;;;;;;5114469;28;20023;-21
2022/03/16 10:29:56;;;;;;;30.10;20.60;;;20.00;47.00;;;;;;5115000;28;20525;-22
2022/03/16 10:32:23;;;;;;;30.10;20.75;;;20.10;47.20;;;;;;5114134;28;20030;-21
2022/03/16 10:34:54;;;;;;;36.53;24.65;;;20.30;46.70;;;;;;5112987;28;20410;-22
2022/03/16 10:37:22;;;;;;;40.10;26.60;;;20.40;46.10;;;;;;5114504;28;20119;-22
2022/03/16 10:39:51;;;;;;;42.40;27.55;;;20.50;45.80;;;;;;5114508;28;20110;-21
2022/03/16 10:48:01;;;;;;;37.50;25.77;;;20.70;44.20;;;;;;5114416;28;20050;-21
2022/03/16 10:50:27;;;;;;;37.38;26.00;;;20.80;45.00;;;;;;5114393;28;20076;-21
2022/03/16 10:52:54;;;;;;;35.38;25.13;;;20.80;45.10;;;;;;5113975;28;20063;-21
2022/03/16 10:55:21;;;;;;;31.60;22.00;;;20.90;45.30;;;;;;5112699;28;20114;-21
2022/03/16 10:57:51;;;;;;;42.35;27.10;;;20.90;45.20;;;;;;5114924;28;20035;-21
2022/03/16 11:00:17;;;;;;;34.53;23.27;;;21.00;44.70;;;;;;5113769;28;20471;-21
2022/03/16 11:02:45;;;;;;;22.60;16.00;;;21.10;44.90;;;;;;5113986;28;20024;-22
2022/03/16 11:05:18;;;;;;;36.55;24.92;;;21.30;45.10;;;;;;5113727;28;20084;-21
2022/03/16 11:07:50;;;;;;;37.47;26.58;;;21.40;44.40;;;;;;5114138;28;20038;-21
2022/03/16 11:10:19;;;;;;;36.78;25.88;;;21.60;44.20;;;;;;5113891;28;20023;-22
2022/03/16 11:15:31;;;;;;;38.92;26.35;;;21.90;43.30;;;;;;5113972;28;20171;-21
2022/03/16 11:17:57;;;;;;;27.80;19.27;;;22.00;43.50;;;;;;5112341;28;20394;-22
2022/03/16 11:20:24;;;;;;;36.10;25.35;;;22.10;43.30;;;;;;5113719;28;20102;-21
2022/03/16 11:26:05;;;;;;;43.80;29.27;;;22.40;42.60;;;;;;5114011;28;20027;-22
2022/03/16 11:28:46;;;;;;;39.08;27.27;;;22.40;42.00;;;;;;5113265;28;20687;-22
2022/03/16 11:31:15;;;;;;;34.00;22.52;;;22.40;41.90;;;;;;5114167;28;20372;-21
2022/03/16 11:33:52;;;;;;;45.83;33.00;;;22.40;42.20;;;;;;5113659;28;20065;-21
2022/03/16 11:36:31;;;;;;;26.80;18.55;;;22.40;41.70;;;;;;5114287;28;20030;-22
2022/03/16 11:38:59;;;;;;;32.92;24.52;;;22.40;41.90;;;;;;5113835;28;20501;-19
2022/03/16 11:41:27;;;;;;;41.47;29.83;;;22.50;42.40;;;;;;5113725;28;20567;-19
2022/03/16 11:44:24;;;;;;;32.80;23.73;;;22.40;41.50;;;;;;5114504;28;20028;-19
2022/03/16 11:46:51;;;;;;;32.00;22.00;;;22.50;40.10;;;;;;5113668;28;20035;-19
2022/03/16 11:49:39;;;;;;;47.08;32.33;;;22.60;41.70;;;;;;5113165;28;20488;-20
2022/03/16 11:52:09;;;;;;;36.15;24.25;;;22.60;40.20;;;;;;5113331;28;20020;-19
2022/03/16 11:54:49;;;;;;;40.30;28.58;;;22.80;41.60;;;;;;5116342;28;20129;-19
2022/03/16 11:57:54;;;;;;;40.00;27.75;;;22.90;40.30;;;;;;5118082;28;20039;-19
2022/03/16 12:00:22;;;;;;;35.03;24.08;;;23.10;39.40;;;;;;5117020;27;20529;-20
2022/03/16 12:02:59;;;;;;;36.08;27.70;;;23.20;40.70;;;;;;5117450;28;20035;-20
2022/03/16 12:05:30;;;;;;;37.38;26.00;;;23.30;38.90;;;;;;5117130;28;20036;-19
2022/03/16 12:08:14;;;;;;;48.17;33.20;;;23.30;40.10;;;;;;5117500;28;20032;-20
2022/03/16 12:12:50;;;;;;;35.47;25.25;;;23.30;38.00;;;;;;5117390;28;20046;-20
2022/03/16 12:13:42;;;;;;;29.35;19.77;;;23.40;39.80;;;;;;5117099;28;20110;-20
2022/03/16 12:16:08;;;;;;;37.92;26.55;;;23.40;40.30;;;;;;5116871;28;20044;-20
2022/03/16 12:18:40;;;;;;;39.83;28.33;;;23.50;40.20;;;;;;5116930;28;20089;-20
2022/03/16 12:21:10;;;;;;;36.92;26.27;;;23.70;39.60;;;;;;5117212;28;20019;-20
2022/03/16 12:23:43;;;;;;;36.13;25.85;;;23.90;39.60;;;;;;5117177;28;20020;-20
2022/03/16 12:26:09;;;;;;;41.37;29.00;;;24.10;39.20;;;;;;5117155;28;20046;-20
2022/03/16 12:31:19;;;;;;;43.00;31.77;;;24.40;38.80;;;;;;5117226;28;20042;-20
2022/03/16 12:33:56;;;;;;;34.50;25.10;;;24.60;38.60;;;;;;5117126;28;20072;-20
2022/03/16 12:36:33;;;;;;;25.52;18.08;;;24.80;38.60;;;;;;5116696;28;20077;-20
2022/03/16 12:39:05;;;;;;;28.58;21.23;;;24.90;38.50;;;;;;5116575;28;20034;-20
2022/03/16 12:44:18;;;;;;;29.20;20.58;;;25.10;37.50;;;;;;5116573;28;20390;-21
2022/03/16 12:46:56;;;;;;;34.35;25.92;;;25.30;38.00;;;;;;5116713;28;20046;-20
2022/03/16 12:49:23;;;;;;;32.15;23.38;;;25.40;37.60;;;;;;5116647;28;20103;-20
2022/03/16 12:51:51;;;;;;;39.92;28.95;;;25.40;37.20;;;;;;5116452;28;20020;-20
2022/03/16 12:54:27;;;;;;;49.47;33.20;;;25.40;36.60;;;;;;5116027;28;20069;-21
2022/03/16 12:57:03;;;;;;;36.05;26.13;;;25.40;35.00;;;;;;5116463;28;20072;-20
2022/03/16 12:59:38;;;;;;;29.95;22.80;;;25.30;35.90;;;;;;5116514;28;20119;-20